sensor_id;sensor_type;location;lat;lon;timestamp;pressure;altitude;pressure_sealevel;temperature;humidity
69302;BME280;56689;47.842;8.974;2023-11-18T02:42:39;97475.81;;;2.14;100.00
69302;BME280;56689;47.842;8.974;2023-11-18T02:45:07;97485.56;;;2.22;100.00
69302;BME280;56689;47.842;8.974;2023-11-18T02:47:33;97486.53;;;2.24;100.00
69302;BME280;56689;47.842;8.974;2023-11-18T02:49:58;97466.59;;;2.18;100.00
69302;BME280;56689;47.842;8.974;2023-11-18T02:52:39;97476.72;;;2.33;100.00
69302;BME280;56689;47.842;8.974;2023-11-18T02:55:06;97477.94;;;2.39;100.00
69302;BME280;56689;47.842;8.974;2023-11-18T02:57:32;97480.09;;;2.48;100.00
69302;BME280;56689;47.842;8.974;2023-11-18T02:59:59;97494.31;;;2.59;100.00
69302;BME280;56689;47.842;8.974;2023-11-18T03:02:26;97497.56;;;2.73;100.00
69302;BME280;56689;47.842;8.974;2023-11-18T03:04:55;97478.44;;;2.66;100.00
69302;BME280;56689;47.842;8.974;2023-11-18T03:07:20;97466.28;;;2.62;100.00
69302;BME280;56689;47.842;8.974;2023-11-18T03:09:46;97469.88;;;2.66;100.00
69302;BME280;56689;47.842;8.974;2023-11-18T03:12:12;97472.97;;;2.77;100.00
69302;BME280;56689;47.842;8.974;2023-11-18T03:14:38;97470.78;;;2.84;100.00
69302;BME280;56689;47.842;8.974;2023-11-18T03:17:04;97463.41;;;2.90;100.00
69302;BME280;56689;47.842;8.974;2023-11-18T03:19:32;97472.41;;;3.00;100.00
69302;BME280;56689;47.842;8.974;2023-11-18T03:22:00;97476.03;;;3.04;100.00
69302;BME280;56689;47.842;8.974;2023-11-18T03:24:25;97452.78;;;3.00;100.00
69302;BME280;56689;47.842;8.974;2023-11-18T03:26:51;97461.88;;;3.12;100.00
69302;BME280;56689;47.842;8.974;2023-11-18T03:29:16;97459.38;;;3.13;100.00
69302;BME280;56689;47.842;8.974;2023-11-18T03:31:42;97451.69;;;3.13;100.00
69302;BME280;56689;47.842;8.974;2023-11-18T03:34:09;97458.28;;;3.26;100.00
69302;BME280;56689;47.842;8.974;2023-11-18T03:36:35;97462.31;;;3.39;100.00
69302;BME280;56689;47.842;8.974;2023-11-18T03:39:00;97444.19;;;3.36;100.00
69302;BME280;56689;47.842;8.974;2023-11-18T03:41:26;97433.91;;;3.36;100.00
69302;BME280;56689;47.842;8.974;2023-11-18T03:43:52;97440.38;;;3.45;100.00
69302;BME280;56689;47.842;8.974;2023-11-18T03:46:17;97443.06;;;3.48;100.00
69302;BME280;56689;47.842;8.974;2023-11-18T03:48:44;97441.84;;;3.40;100.00
69302;BME280;56689;47.842;8.974;2023-11-18T03:51:09;97448.59;;;3.38;100.00
69302;BME280;56689;47.842;8.974;2023-11-18T03:53:35;97468.25;;;3.38;100.00
69302;BME280;56689;47.842;8.974;2023-11-18T03:56:00;97475.44;;;3.45;100.00
69302;BME280;56689;47.842;8.974;2023-11-18T03:58:27;97466.16;;;3.48;100.00
69302;BME280;56689;47.842;8.974;2023-11-18T04:00:53;97470.59;;;3.51;100.00
69302;BME280;56689;47.842;8.974;2023-11-18T04:03:19;97464.41;;;3.47;100.00
69302;BME280;56689;47.842;8.974;2023-11-18T04:05:44;97463.88;;;3.54;100.00
69302;BME280;56689;47.842;8.974;2023-11-18T04:08:09;97474.22;;;3.56;100.00
69302;BME280;56689;47.842;8.974;2023-11-18T04:10:36;97476.88;;;3.58;100.00
69302;BME280;56689;47.842;8.974;2023-11-18T04:13:02;97463.19;;;3.57;100.00
69302;BME280;56689;47.842;8.974;2023-11-18T04:15:27;97458.09;;;3.59;100.00
69302;BME280;56689;47.842;8.974;2023-11-18T04:17:53;97456.53;;;3.62;100.00
69302;BME280;56689;47.842;8.974;2023-11-18T04:20:18;97463.44;;;3.63;100.00
69302;BME280;56689;47.842;8.974;2023-11-18T04:22:44;97452.22;;;3.61;100.00
69302;BME280;56689;47.842;8.974;2023-11-18T04:25:11;97460.13;;;3.66;100.00
69302;BME280;56689;47.842;8.974;2023-11-18T04:27:40;97455.81;;;3.65;100.00
69302;BME280;56689;47.842;8.974;2023-11-18T04:30:06;97475.84;;;3.72;100.00
69302;BME280;56689;47.842;8.974;2023-11-18T04:32:33;97475.03;;;3.73;100.00
69302;BME280;56689;47.842;8.974;2023-11-18T04:34:59;97480.28;;;3.76;100.00
69302;BME280;56689;47.842;8.974;2023-11-18T04:37:25;97474.34;;;3.77;100.00
69302;BME280;56689;47.842;8.974;2023-11-18T04:39:51;97479.84;;;3.84;100.00
69302;BME280;56689;47.842;8.974;2023-11-18T04:42:17;97470.75;;;3.73;100.00
69302;BME280;56689;47.842;8.974;2023-11-18T04:44:42;97476.66;;;3.71;100.00
69302;BME280;56689;47.842;8.974;2023-11-18T04:47:07;97478.31;;;3.70;100.00
69302;BME280;56689;47.842;8.974;2023-11-18T04:49:33;97487.28;;;3.78;100.00
69302;BME280;56689;47.842;8.974;2023-11-18T04:51:58;97482.72;;;3.73;100.00
69302;BME280;56689;47.842;8.974;2023-11-18T04:54:24;97473.91;;;3.68;100.00
69302;BME280;56689;47.842;8.974;2023-11-18T04:56:49;97480.88;;;3.70;100.00
69302;BME280;56689;47.842;8.974;2023-11-18T04:59:15;97478.25;;;3.69;100.00
69302;BME280;56689;47.842;8.974;2023-11-18T05:01:40;97475.25;;;3.60;100.00
69302;BME280;56689;47.842;8.974;2023-11-18T05:04:06;97469.19;;;3.58;100.00
69302;BME280;56689;47.842;8.974;2023-11-18T05:06:33;97475.84;;;3.72;100.00
69302;BME280;56689;47.842;8.974;2023-11-18T05:08:59;97487.28;;;3.78;100.00
69302;BME280;56689;47.842;8.974;2023-11-18T05:11:24;97460.56;;;3.75;100.00
69302;BME280;56689;47.842;8.974;2023-11-18T05:13:49;97481.59;;;3.86;100.00
69302;BME280;56689;47.842;8.974;2023-11-18T05:16:15;97479.31;;;3.92;100.00
69302;BME280;56689;47.842;8.974;2023-11-18T05:18:41;97442.78;;;3.79;100.00
69302;BME280;56689;47.842;8.974;2023-11-18T05:21:06;97435.81;;;3.77;100.00
69302;BME280;56689;47.842;8.974;2023-11-18T05:23:34;97443.06;;;3.86;100.00
69302;BME280;56689;47.842;8.974;2023-11-18T05:26:00;97455.31;;;3.91;100.00
69302;BME280;56689;47.842;8.974;2023-11-18T05:28:26;97447.19;;;4.01;100.00
69302;BME280;56689;47.842;8.974;2023-11-18T05:30:51;97462.38;;;3.97;100.00
69302;BME280;56689;47.842;8.974;2023-11-18T05:33:17;97461.66;;;3.99;100.00
69302;BME280;56689;47.842;8.974;2023-11-18T05:35:44;97446.63;;;3.89;100.00
69302;BME280;56689;47.842;8.974;2023-11-18T05:38:19;97462.94;;;3.90;100.00
69302;BME280;56689;47.842;8.974;2023-11-18T05:40:47;97450.91;;;3.89;100.00
69302;BME280;56689;47.842;8.974;2023-11-18T05:43:26;97461.56;;;3.98;100.00
69302;BME280;56689;47.842;8.974;2023-11-18T05:45:55;97443.88;;;3.84;100.00
69302;BME280;56689;47.842;8.974;2023-11-18T05:48:39;97466.06;;;4.02;100.00
69302;BME280;56689;47.842;8.974;2023-11-18T05:51:04;97465.31;;;4.04;100.00
69302;BME280;56689;47.842;8.974;2023-11-18T05:53:30;97461.72;;;4.01;100.00
69302;BME280;56689;47.842;8.974;2023-11-18T05:55:56;97457.13;;;3.94;100.00
69302;BME280;56689;47.842;8.974;2023-11-18T05:58:21;97444.00;;;3.88;100.00
69302;BME280;56689;47.842;8.974;2023-11-18T06:00:47;97460.63;;;3.96;100.00
69302;BME280;56689;47.842;8.974;2023-11-18T06:03:13;97450.34;;;3.76;100.00
69302;BME280;56689;47.842;8.974;2023-11-18T06:05:38;97468.66;;;3.84;100.00
69302;BME280;56689;47.842;8.974;2023-11-18T06:08:03;97458.03;;;3.76;100.00
69302;BME280;56689;47.842;8.974;2023-11-18T06:10:29;97462.03;;;3.70;100.00
69302;BME280;56689;47.842;8.974;2023-11-18T06:12:56;97423.50;;;3.50;100.00
69302;BME280;56689;47.842;8.974;2023-11-18T06:15:23;97462.47;;;3.61;100.00
69302;BME280;56689;47.842;8.974;2023-11-18T06:17:48;97451.81;;;3.52;100.00
69302;BME280;56689;47.842;8.974;2023-11-18T06:20:14;97464.13;;;3.41;100.00
69302;BME280;56689;47.842;8.974;2023-11-18T06:22:39;97450.81;;;3.31;100.00
69302;BME280;56689;47.842;8.974;2023-11-18T06:25:05;97467.66;;;3.25;100.00
69302;BME280;56689;47.842;8.974;2023-11-18T06:27:32;97465.09;;;3.08;100.00
69302;BME280;56689;47.842;8.974;2023-11-18T06:29:58;97465.31;;;3.12;100.00
69302;BME280;56689;47.842;8.974;2023-11-18T06:32:23;97457.63;;;3.12;100.00
69302;BME280;56689;47.842;8.974;2023-11-18T06:34:51;97465.44;;;3.15;100.00
69302;BME280;56689;47.842;8.974;2023-11-18T06:37:17;97464.72;;;3.18;100.00
69302;BME280;56689;47.842;8.974;2023-11-18T06:39:42;97466.63;;;3.22;100.00
69302;BME280;56689;47.842;8.974;2023-11-18T06:42:11;97466.19;;;3.13;100.00
69302;BME280;56689;47.842;8.974;2023-11-18T06:44:37;97454.91;;;3.09;100.00
69302;BME280;56689;47.842;8.974;2023-11-18T06:47:03;97479.16;;;2.98;100.00
69302;BME280;56689;47.842;8.974;2023-11-18T06:49:30;97468.22;;;2.84;100.00
69302;BME280;56689;47.842;8.974;2023-11-18T06:51:59;97464.56;;;2.79;100.00
69302;BME280;56689;47.842;8.974;2023-11-18T06:54:31;97468.97;;;2.82;100.00
69302;BME280;56689;47.842;8.974;2023-11-18T06:56:58;97475.75;;;2.81;100.00
69302;BME280;56689;47.842;8.974;2023-11-18T06:59:23;97488.31;;;2.75;100.00
69302;BME280;56689;47.842;8.974;2023-11-18T07:01:49;97501.19;;;2.77;100.00
69302;BME280;56689;47.842;8.974;2023-11-18T07:04:14;97495.25;;;2.78;100.00
69302;BME280;56689;47.842;8.974;2023-11-18T07:06:40;97478.75;;;2.72;100.00
69302;BME280;56689;47.842;8.974;2023-11-18T07:09:07;97476.00;;;2.86;100.00
69302;BME280;56689;47.842;8.974;2023-11-18T07:11:42;97484.44;;;2.83;100.00
69302;BME280;56689;47.842;8.974;2023-11-18T07:14:11;97477.16;;;2.92;100.00
69302;BME280;56689;47.842;8.974;2023-11-18T07:16:41;97495.88;;;3.08;100.00
69302;BME280;56689;47.842;8.974;2023-11-18T07:19:07;97488.03;;;3.05;100.00
69302;BME280;56689;47.842;8.974;2023-11-18T07:21:33;97469.03;;;2.83;100.00
69302;BME280;56689;47.842;8.974;2023-11-18T07:23:59;97488.31;;;2.93;100.00
69302;BME280;56689;47.842;8.974;2023-11-18T07:26:25;97479.59;;;2.89;100.00
69302;BME280;56689;47.842;8.974;2023-11-18T07:28:50;97485.41;;;3.03;100.00
69302;BME280;56689;47.842;8.974;2023-11-18T07:31:17;97479.53;;;3.06;100.00
69302;BME280;56689;47.842;8.974;2023-11-18T07:33:47;97470.59;;;3.15;100.00
69302;BME280;56689;47.842;8.974;2023-11-18T07:36:16;97470.97;;;3.23;100.00
69302;BME280;56689;47.842;8.974;2023-11-18T07:38:42;97463.53;;;3.29;100.00
69302;BME280;56689;47.842;8.974;2023-11-18T07:41:07;97484.59;;;3.58;100.00
69302;BME280;56689;47.842;8.974;2023-11-18T07:43:34;97494.34;;;3.47;100.00
69302;BME280;56689;47.842;8.974;2023-11-18T07:46:08;97465.88;;;3.42;100.00
69302;BME280;56689;47.842;8.974;2023-11-18T07:48:33;97498.06;;;3.53;100.00
69302;BME280;56689;47.842;8.974;2023-11-18T07:51:02;97485.38;;;3.56;100.00
69302;BME280;56689;47.842;8.974;2023-11-18T07:53:27;97478.19;;;3.49;100.00
69302;BME280;56689;47.842;8.974;2023-11-18T07:55:55;97492.47;;;3.62;100.00
69302;BME280;56689;47.842;8.974;2023-11-18T07:58:21;97467.41;;;3.56;100.00
69302;BME280;56689;47.842;8.974;2023-11-18T08:00:48;97484.84;;;3.64;100.00
69302;BME280;56689;47.842;8.974;2023-11-18T08:03:14;97481.69;;;3.69;100.00
69302;BME280;56689;47.842;8.974;2023-11-18T08:05:44;97493.28;;;3.79;100.00
69302;BME280;56689;47.842;8.974;2023-11-18T08:08:14;97477.72;;;3.76;100.00
69302;BME280;56689;47.842;8.974;2023-11-18T08:10:44;97492.81;;;3.88;100.00
69302;BME280;56689;47.842;8.974;2023-11-18T08:13:13;97483.41;;;3.88;100.00
69302;BME280;56689;47.842;8.974;2023-11-18T08:15:40;97469.81;;;3.91;100.00
69302;BME280;56689;47.842;8.974;2023-11-18T08:18:06;97460.34;;;3.90;100.00
69302;BME280;56689;47.842;8.974;2023-11-18T08:20:33;97469.97;;;3.94;100.00
69302;BME280;56689;47.842;8.974;2023-11-18T08:23:07;97492.91;;;4.08;100.00
69302;BME280;56689;47.842;8.974;2023-11-18T08:25:34;97462.94;;;4.09;100.00
69302;BME280;56689;47.842;8.974;2023-11-18T08:28:01;97478.31;;;4.27;100.00
69302;BME280;56689;47.842;8.974;2023-11-18T08:30:27;97477.69;;;4.32;100.00
69302;BME280;56689;47.842;8.974;2023-11-18T08:32:52;97486.75;;;4.44;100.00
69302;BME280;56689;47.842;8.974;2023-11-18T08:35:18;97480.16;;;4.50;100.00
69302;BME280;56689;47.842;8.974;2023-11-18T08:37:44;97480.50;;;4.38;100.00
69302;BME280;56689;47.842;8.974;2023-11-18T08:40:11;97491.16;;;4.46;100.00
69302;BME280;56689;47.842;8.974;2023-11-18T08:42:52;97487.00;;;4.50;100.00
69302;BME280;56689;47.842;8.974;2023-11-18T08:45:21;97485.63;;;4.58;100.00
69302;BME280;56689;47.842;8.974;2023-11-18T08:47:48;97459.00;;;4.56;100.00
69302;BME280;56689;47.842;8.974;2023-11-18T08:50:15;97469.81;;;4.68;100.00
69302;BME280;56689;47.842;8.974;2023-11-18T08:52:42;97447.94;;;4.58;100.00
69302;BME280;56689;47.842;8.974;2023-11-18T08:55:18;97457.88;;;4.70;100.00
69302;BME280;56689;47.842;8.974;2023-11-18T08:57:48;97471.38;;;4.85;100.00
69302;BME280;56689;47.842;8.974;2023-11-18T09:00:34;97474.13;;;4.90;100.00
69302;BME280;56689;47.842;8.974;2023-11-18T09:03:17;97483.09;;;5.00;100.00
69302;BME280;56689;47.842;8.974;2023-11-18T09:05:49;97486.00;;;5.07;100.00
69302;BME280;56689;47.842;8.974;2023-11-18T09:08:27;97480.72;;;5.04;100.00
69302;BME280;56689;47.842;8.974;2023-11-18T09:10:57;97468.44;;;4.97;100.00
69302;BME280;56689;47.842;8.974;2023-11-18T09:13:24;97468.22;;;4.92;100.00
69302;BME280;56689;47.842;8.974;2023-11-18T09:15:59;97467.81;;;5.03;100.00
69302;BME280;56689;47.842;8.974;2023-11-18T09:18:29;97454.44;;;4.90;100.00
69302;BME280;56689;47.842;8.974;2023-11-18T09:21:00;97439.00;;;4.90;100.00
69302;BME280;56689;47.842;8.974;2023-11-18T09:23:26;97441.38;;;4.86;100.00
69302;BME280;56689;47.842;8.974;2023-11-18T09:25:53;97447.16;;;5.01;100.00
69302;BME280;56689;47.842;8.974;2023-11-18T09:28:20;97434.84;;;4.94;100.00
69302;BME280;56689;47.842;8.974;2023-11-18T09:30:46;97438.88;;;5.08;100.00
69302;BME280;56689;47.842;8.974;2023-11-18T09:33:42;97451.09;;;5.14;100.00
69302;BME280;56689;47.842;8.974;2023-11-18T09:36:27;97447.59;;;5.12;100.00
69302;BME280;56689;47.842;8.974;2023-11-18T09:39:08;97430.38;;;5.11;100.00
69302;BME280;56689;47.842;8.974;2023-11-18T09:41:53;97475.69;;;5.28;100.00
69302;BME280;56689;47.842;8.974;2023-11-18T09:47:21;97452.38;;;5.46;100.00
69302;BME280;56689;47.842;8.974;2023-11-18T09:50:33;97462.38;;;5.61;100.00
69302;BME280;56689;47.842;8.974;2023-11-18T09:53:41;97449.25;;;5.55;100.00
69302;BME280;56689;47.842;8.974;2023-11-18T09:56:37;97448.31;;;5.75;100.00
69302;BME280;56689;47.842;8.974;2023-11-18T09:59:32;97459.09;;;5.87;100.00
69302;BME280;56689;47.842;8.974;2023-11-18T10:02:14;97436.22;;;5.72;100.00
69302;BME280;56689;47.842;8.974;2023-11-18T10:05:06;97462.03;;;5.96;100.00
69302;BME280;56689;47.842;8.974;2023-11-18T10:08:03;97423.94;;;5.89;100.00
69302;BME280;56689;47.842;8.974;2023-11-18T10:10:49;97431.63;;;6.10;100.00
69302;BME280;56689;47.842;8.974;2023-11-18T10:15:56;97418.25;;;6.20;100.00
69302;BME280;56689;47.842;8.974;2023-11-18T10:18:44;97405.31;;;6.19;100.00
69302;BME280;56689;47.842;8.974;2023-11-18T10:21:34;97415.59;;;6.43;100.00
69302;BME280;56689;47.842;8.974;2023-11-18T10:24:45;97403.47;;;6.40;100.00
69302;BME280;56689;47.842;8.974;2023-11-18T10:27:26;97416.19;;;6.60;100.00
69302;BME280;56689;47.842;8.974;2023-11-18T10:30:09;97439.00;;;6.73;100.00
69302;BME280;56689;47.842;8.974;2023-11-18T10:40:04;97446.13;;;6.80;100.00
69302;BME280;56689;47.842;8.974;2023-11-18T10:46:57;97420.66;;;6.65;100.00
69302;BME280;56689;47.842;8.974;2023-11-18T10:50:15;97458.28;;;6.84;100.00
69302;BME280;56689;47.842;8.974;2023-11-18T10:53:31;97407.34;;;6.53;100.00
69302;BME280;56689;47.842;8.974;2023-11-18T10:56:23;97449.25;;;6.71;100.00
69302;BME280;56689;47.842;8.974;2023-11-18T10:59:22;97459.34;;;6.65;100.00
69302;BME280;56689;47.842;8.974;2023-11-18T11:02:32;97419.56;;;6.33;100.00
69302;BME280;56689;47.842;8.974;2023-11-18T11:05:05;97402.94;;;6.25;100.00
69302;BME280;56689;47.842;8.974;2023-11-18T11:07:41;97416.84;;;6.30;100.00
69302;BME280;56689;47.842;8.974;2023-11-18T11:10:11;97431.66;;;6.36;100.00
69302;BME280;56689;47.842;8.974;2023-11-18T11:13:02;97428.56;;;6.20;100.00
69302;BME280;56689;47.842;8.974;2023-11-18T11:15:32;97453.09;;;6.33;100.00
69302;BME280;56689;47.842;8.974;2023-11-18T11:18:08;97455.00;;;6.39;100.00
69302;BME280;56689;47.842;8.974;2023-11-18T11:20:42;97436.25;;;6.44;100.00
69302;BME280;56689;47.842;8.974;2023-11-18T11:31:48;97436.69;;;6.56;100.00
69302;BME280;56689;47.842;8.974;2023-11-18T11:34:25;97442.59;;;6.78;100.00
69302;BME280;56689;47.842;8.974;2023-11-18T11:36:54;97445.25;;;6.79;100.00
69302;BME280;56689;47.842;8.974;2023-11-18T11:39:21;97423.81;;;6.82;100.00
69302;BME280;56689;47.842;8.974;2023-11-18T11:41:53;97429.19;;;6.88;100.00
69302;BME280;56689;47.842;8.974;2023-11-18T11:44:24;97434.47;;;6.93;100.00
69302;BME280;56689;47.842;8.974;2023-11-18T11:46:57;97405.00;;;6.86;100.00
69302;BME280;56689;47.842;8.974;2023-11-18T11:49:36;97413.97;;;6.97;100.00
69302;BME280;56689;47.842;8.974;2023-11-18T11:52:24;97408.94;;;7.00;100.00
69302;BME280;56689;47.842;8.974;2023-11-18T11:55:02;97390.47;;;6.88;100.00
69302;BME280;56689;47.842;8.974;2023-11-18T11:57:41;97401.91;;;6.71;100.00
69302;BME280;56689;47.842;8.974;2023-11-18T12:00:11;97404.75;;;6.78;100.00
69302;BME280;56689;47.842;8.974;2023-11-18T12:02:52;97378.66;;;6.69;100.00
69302;BME280;56689;47.842;8.974;2023-11-18T12:05:24;97395.19;;;7.01;100.00
69302;BME280;56689;47.842;8.974;2023-11-18T12:07:55;97397.91;;;7.06;100.00
69302;BME280;56689;47.842;8.974;2023-11-18T12:10:21;97386.13;;;7.14;100.00
69302;BME280;56689;47.842;8.974;2023-11-18T12:13:07;97384.50;;;7.18;100.00
69302;BME280;56689;47.842;8.974;2023-11-18T12:15:51;97355.63;;;7.02;100.00
69302;BME280;56689;47.842;8.974;2023-11-18T12:18:23;97378.81;;;7.01;100.00
69302;BME280;56689;47.842;8.974;2023-11-18T12:20:50;97342.69;;;6.74;100.00
69302;BME280;56689;47.842;8.974;2023-11-18T12:23:27;97376.72;;;6.89;100.00
69302;BME280;56689;47.842;8.974;2023-11-18T12:25:54;97376.00;;;6.93;100.00
69302;BME280;56689;47.842;8.974;2023-11-18T12:30:47;97351.16;;;6.97;100.00
69302;BME280;56689;47.842;8.974;2023-11-18T12:33:26;97324.75;;;6.78;100.00
69302;BME280;56689;47.842;8.974;2023-11-18T12:41:39;97334.78;;;6.96;100.00
69302;BME280;56689;47.842;8.974;2023-11-18T12:46:51;97357.31;;;7.00;100.00
69302;BME280;56689;47.842;8.974;2023-11-18T12:49:21;97356.41;;;7.00;100.00
69302;BME280;56689;47.842;8.974;2023-11-18T12:51:54;97341.50;;;6.91;100.00
69302;BME280;56689;47.842;8.974;2023-11-18T12:54:23;97333.19;;;6.73;100.00
69302;BME280;56689;47.842;8.974;2023-11-18T12:56:56;97351.38;;;6.77;100.00
69302;BME280;56689;47.842;8.974;2023-11-18T12:59:28;97313.78;;;6.58;100.00
69302;BME280;56689;47.842;8.974;2023-11-18T13:02:32;97307.63;;;6.53;100.00
69302;BME280;56689;47.842;8.974;2023-11-18T13:05:22;97337.72;;;6.53;100.00
69302;BME280;56689;47.842;8.974;2023-11-18T13:08:42;97308.72;;;6.35;100.00
69302;BME280;56689;47.842;8.974;2023-11-18T13:11:38;97313.91;;;6.36;100.00
69302;BME280;56689;47.842;8.974;2023-11-18T13:14:19;97358.28;;;6.51;100.00
69302;BME280;56689;47.842;8.974;2023-11-18T13:17:09;97325.78;;;6.31;100.00
69302;BME280;56689;47.842;8.974;2023-11-18T13:19:37;97322.53;;;6.37;100.00
69302;BME280;56689;47.842;8.974;2023-11-18T13:22:07;97311.13;;;6.30;100.00
69302;BME280;56689;47.842;8.974;2023-11-18T13:24:42;97301.94;;;6.38;100.00
69302;BME280;56689;47.842;8.974;2023-11-18T13:27:18;97302.78;;;6.37;100.00
69302;BME280;56689;47.842;8.974;2023-11-18T13:30:18;97321.06;;;6.45;100.00
69302;BME280;56689;47.842;8.974;2023-11-18T13:32:49;97331.81;;;6.57;100.00
69302;BME280;56689;47.842;8.974;2023-11-18T13:35:19;97302.56;;;6.31;100.00
69302;BME280;56689;47.842;8.974;2023-11-18T13:37:54;97294.84;;;6.31;100.00
69302;BME280;56689;47.842;8.974;2023-11-18T13:40:53;97331.09;;;6.61;100.00
69302;BME280;56689;47.842;8.974;2023-11-18T13:43:18;97299.69;;;6.47;100.00
69302;BME280;56689;47.842;8.974;2023-11-18T13:45:56;97285.72;;;6.41;100.00
69302;BME280;56689;47.842;8.974;2023-11-18T13:48:30;97307.31;;;6.44;100.00
69302;BME280;56689;47.842;8.974;2023-11-18T13:50:58;97310.72;;;6.43;100.00
69302;BME280;56689;47.842;8.974;2023-11-18T13:53:32;97318.81;;;6.54;100.00
69302;BME280;56689;47.842;8.974;2023-11-18T13:55:58;97311.22;;;6.58;100.00
69302;BME280;56689;47.842;8.974;2023-11-18T13:58:25;97304.22;;;6.54;100.00
69302;BME280;56689;47.842;8.974;2023-11-18T14:00:53;97320.97;;;6.67;100.00
69302;BME280;56689;47.842;8.974;2023-11-18T14:03:19;97273.84;;;6.46;100.00
69302;BME280;56689;47.842;8.974;2023-11-18T14:05:51;97266.91;;;6.45;100.00
69302;BME280;56689;47.842;8.974;2023-11-18T14:08:27;97283.88;;;6.64;100.00
69302;BME280;56689;47.842;8.974;2023-11-18T14:10:55;97259.13;;;6.43;100.00
69302;BME280;56689;47.842;8.974;2023-11-18T14:13:23;97267.19;;;6.52;100.00
69302;BME280;56689;47.842;8.974;2023-11-18T14:15:59;97231.72;;;6.45;100.00
69302;BME280;56689;47.842;8.974;2023-11-18T14:18:53;97217.19;;;6.49;100.00
69302;BME280;56689;47.842;8.974;2023-11-18T14:21:19;97240.03;;;6.65;100.00
69302;BME280;56689;47.842;8.974;2023-11-18T14:23:45;97227.78;;;6.58;100.00
69302;BME280;56689;47.842;8.974;2023-11-18T14:26:11;97196.09;;;6.34;100.00
69302;BME280;56689;47.842;8.974;2023-11-18T14:28:37;97224.84;;;6.46;100.00
69302;BME280;56689;47.842;8.974;2023-11-18T14:31:03;97202.84;;;6.30;100.00
69302;BME280;56689;47.842;8.974;2023-11-18T14:33:30;97244.34;;;6.65;100.00
69302;BME280;56689;47.842;8.974;2023-11-18T14:35:59;97212.75;;;6.45;100.00
69302;BME280;56689;47.842;8.974;2023-11-18T14:38:32;97256.47;;;6.67;100.00
69302;BME280;56689;47.842;8.974;2023-11-18T14:40:59;97226.78;;;6.53;100.00
69302;BME280;56689;47.842;8.974;2023-11-18T14:43:37;97222.41;;;6.50;100.00
69302;BME280;56689;47.842;8.974;2023-11-18T14:46:21;97198.88;;;6.40;100.00
69302;BME280;56689;47.842;8.974;2023-11-18T14:52:38;97186.47;;;6.28;100.00
69302;BME280;56689;47.842;8.974;2023-11-18T14:55:32;97180.59;;;6.32;100.00
69302;BME280;56689;47.842;8.974;2023-11-18T14:58:14;97188.56;;;6.40;100.00
69302;BME280;56689;47.842;8.974;2023-11-18T15:00:53;97210.69;;;6.60;100.00
69302;BME280;56689;47.842;8.974;2023-11-18T15:03:34;97212.00;;;6.47;100.00
69302;BME280;56689;47.842;8.974;2023-11-18T15:06:07;97189.06;;;6.29;100.00
69302;BME280;56689;47.842;8.974;2023-11-18T15:09:01;97172.28;;;6.15;100.00
69302;BME280;56689;47.842;8.974;2023-11-18T15:11:55;97169.53;;;6.09;100.00
69302;BME280;56689;47.842;8.974;2023-11-18T15:14:26;97172.97;;;6.10;100.00
69302;BME280;56689;47.842;8.974;2023-11-18T15:16:54;97175.91;;;6.20;100.00
69302;BME280;56689;47.842;8.974;2023-11-18T15:19:23;97192.69;;;6.35;100.00
69302;BME280;56689;47.842;8.974;2023-11-18T15:21:48;97158.34;;;6.09;100.00
69302;BME280;56689;47.842;8.974;2023-11-18T15:24:16;97161.91;;;6.12;100.00
69302;BME280;56689;47.842;8.974;2023-11-18T15:26:42;97187.31;;;6.28;100.00
69302;BME280;56689;47.842;8.974;2023-11-18T15:29:08;97147.28;;;6.11;100.00
69302;BME280;56689;47.842;8.974;2023-11-18T15:31:40;97140.16;;;6.04;100.00
69302;BME280;56689;47.842;8.974;2023-11-18T15:34:06;97125.28;;;5.95;100.00
69302;BME280;56689;47.842;8.974;2023-11-18T15:36:32;97153.50;;;6.18;100.00
69302;BME280;56689;47.842;8.974;2023-11-18T15:38:57;97139.97;;;6.25;100.00
69302;BME280;56689;47.842;8.974;2023-11-18T15:41:29;97114.19;;;5.98;100.00
69302;BME280;56689;47.842;8.974;2023-11-18T15:43:55;97119.34;;;5.98;100.00
69302;BME280;56689;47.842;8.974;2023-11-18T15:46:20;97142.84;;;6.07;100.00
69302;BME280;56689;47.842;8.974;2023-11-18T15:48:46;97133.59;;;6.14;100.00
69302;BME280;56689;47.842;8.974;2023-11-18T15:51:12;97096.28;;;6.02;100.00
69302;BME280;56689;47.842;8.974;2023-11-18T15:53:41;97107.66;;;6.09;100.00
69302;BME280;56689;47.842;8.974;2023-11-18T15:56:10;97122.56;;;6.18;100.00
69302;BME280;56689;47.842;8.974;2023-11-18T15:58:36;97122.38;;;6.12;100.00
69302;BME280;56689;47.842;8.974;2023-11-18T16:01:05;97130.13;;;6.13;100.00
69302;BME280;56689;47.842;8.974;2023-11-18T16:03:31;97115.41;;;6.09;100.00
69302;BME280;56689;47.842;8.974;2023-11-18T16:05:59;97126.66;;;6.11;100.00
69302;BME280;56689;47.842;8.974;2023-11-18T16:08:24;97129.22;;;6.11;100.00
69302;BME280;56689;47.842;8.974;2023-11-18T16:10:53;97139.69;;;6.17;100.00
69302;BME280;56689;47.842;8.974;2023-11-18T16:13:21;97108.25;;;6.00;100.00
69302;BME280;56689;47.842;8.974;2023-11-18T16:15:50;97119.63;;;6.07;100.00
69302;BME280;56689;47.842;8.974;2023-11-18T16:18:18;97127.28;;;6.04;100.00
69302;BME280;56689;47.842;8.974;2023-11-18T16:20:44;97136.59;;;6.00;100.00
69302;BME280;56689;47.842;8.974;2023-11-18T16:23:10;97129.56;;;5.95;100.00
69302;BME280;56689;47.842;8.974;2023-11-18T16:25:35;97121.53;;;5.87;100.00
69302;BME280;56689;47.842;8.974;2023-11-18T16:28:02;97117.22;;;5.86;100.00
69302;BME280;56689;47.842;8.974;2023-11-18T16:30:35;97144.13;;;5.94;100.00
69302;BME280;56689;47.842;8.974;2023-11-18T16:33:02;97141.75;;;6.00;100.00
69302;BME280;56689;47.842;8.974;2023-11-18T16:35:30;97137.44;;;5.99;100.00
69302;BME280;56689;47.842;8.974;2023-11-18T16:37:56;97142.69;;;6.02;100.00
69302;BME280;56689;47.842;8.974;2023-11-18T16:40:22;97124.09;;;5.86;100.00
69302;BME280;56689;47.842;8.974;2023-11-18T16:42:50;97135.72;;;6.00;100.00
69302;BME280;56689;47.842;8.974;2023-11-18T16:45:16;97126.09;;;5.94;100.00